Time;durP1;ratioP1;P1;durP2;ratioP2;P2;SDS_P1;SDS_P2;PMS_P1;PMS_P2;Temp;Humidity;BMP_temperature;BMP_pressure;BME280_temperature;BME280_humidity;BME280_pressure;Samples;Min_cycle;Max_cycle;Signal;HPM_P1;HPM_P2
2022/02/16 00:00:57;;;;;;;29.77;18.12;;;;;;;0.83;67.21;100812.77;1692052;83;21023;-77
2022/02/16 00:03:23;;;;;;;26.12;16.32;;;;;;;0.79;67.32;100802.92;1681692;84;21830;-77
2022/02/16 00:05:50;;;;;;;30.30;17.23;;;;;;;0.77;67.46;100806.45;1693796;83;21012;-77
2022/02/16 00:08:18;;;;;;;26.97;15.80;;;;;;;0.73;67.59;100803.11;1690249;84;21419;-76
2022/02/16 00:10:45;;;;;;;27.45;15.55;;;;;;;0.74;67.77;100796.16;1663923;85;21555;-77
2022/02/16 00:13:12;;;;;;;28.07;13.72;;;;;;;0.74;67.85;100793.55;1691147;83;21448;-77
2022/02/16 00:15:39;;;;;;;21.65;13.10;;;;;;;0.75;67.92;100787.00;1693456;83;22170;-77
2022/02/16 00:18:06;;;;;;;21.10;12.85;;;;;;;0.75;67.95;100786.16;1696326;83;21551;-77
2022/02/16 00:20:33;;;;;;;23.70;12.47;;;;;;;0.76;68.03;100785.25;1664509;84;20979;-77
2022/02/16 00:23:00;;;;;;;23.02;12.88;;;;;;;0.76;68.03;100781.34;1694251;83;21027;-78
2022/02/16 00:25:26;;;;;;;23.22;12.35;;;;;;;0.75;68.04;100779.66;1719588;83;21027;-75
2022/02/16 00:27:54;;;;;;;26.25;12.50;;;;;;;0.76;68.01;100778.75;1716441;83;21780;-77
2022/02/16 00:30:21;;;;;;;21.57;12.23;;;;;;;0.73;67.99;100778.41;1670806;83;21038;-77
2022/02/16 00:32:47;;;;;;;22.22;12.28;;;;;;;0.71;68.04;100776.31;1707949;83;21035;-77
2022/02/16 00:35:14;;;;;;;21.20;12.10;;;;;;;0.70;68.04;100765.97;1665727;83;21424;-77
2022/02/16 00:37:41;;;;;;;22.15;12.28;;;;;;;0.69;68.03;100769.47;1714906;83;21528;-76
2022/02/16 00:40:09;;;;;;;18.82;11.18;;;;;;;0.66;68.06;100764.35;1693878;83;22478;-77
2022/02/16 00:42:36;;;;;;;23.92;11.88;;;;;;;0.64;68.11;100758.36;1699849;83;21046;-77
2022/02/16 00:45:05;;;;;;;21.40;11.53;;;;;;;0.61;68.16;100755.87;1699718;83;21073;-77
2022/02/16 00:47:33;;;;;;;24.95;12.73;;;;;;;0.60;68.20;100746.38;1695366;83;21066;-78
2022/02/16 00:49:59;;;;;;;23.90;13.40;;;;;;;0.60;68.22;100752.42;1678280;83;21018;-77
2022/02/16 00:52:26;;;;;;;22.90;13.90;;;;;;;0.61;68.22;100741.57;1712793;83;22171;-77
2022/02/16 00:54:53;;;;;;;26.23;15.30;;;;;;;0.61;68.22;100739.82;1703964;83;20975;-77
2022/02/16 00:57:20;;;;;;;28.07;16.27;;;;;;;0.61;68.30;100737.67;1718493;83;21074;-77
2022/02/16 00:59:47;;;;;;;24.95;14.85;;;;;;;0.61;68.35;100730.72;1710260;82;21070;-77
2022/02/16 01:02:14;;;;;;;26.07;15.15;;;;;;;0.63;68.42;100729.37;1697075;83;21405;-76
2022/02/16 01:04:41;;;;;;;27.32;14.85;;;;;;;0.64;68.52;100723.27;1703116;83;21824;-76
2022/02/16 01:07:09;;;;;;;27.75;14.83;;;;;;;0.65;68.62;100723.66;1718804;83;21022;-77
2022/02/16 01:09:36;;;;;;;25.55;14.63;;;;;;;0.66;68.75;100716.26;1699986;83;21443;-77
2022/02/16 01:12:03;;;;;;;23.83;13.88;;;;;;;0.68;68.85;100710.58;1692300;83;21053;-77
2022/02/16 01:14:32;;;;;;;23.67;13.35;;;;;;;0.73;68.91;100715.16;1701751;83;21030;-76
2022/02/16 01:17:19;;;;;;;25.05;14.13;;;;;;;0.76;68.96;100712.00;1718408;83;21867;-77
2022/02/16 01:19:51;;;;;;;26.23;14.07;;;;;;;0.80;69.00;100708.86;1709714;83;21042;-77
2022/02/16 01:22:17;;;;;;;29.15;14.25;;;;;;;0.85;69.06;100708.23;1692100;83;21034;-77
2022/02/16 01:24:46;;;;;;;25.48;13.98;;;;;;;0.88;69.05;100701.66;1691588;83;20983;-77
2022/02/16 01:27:14;;;;;;;24.67;14.35;;;;;;;0.94;69.03;100696.68;1701812;83;20982;-76
2022/02/16 01:29:42;;;;;;;25.15;14.28;;;;;;;0.98;69.07;100700.89;1716047;83;21837;-77
2022/02/16 01:32:16;;;;;;;28.20;14.30;;;;;;;1.00;69.09;100697.33;1691221;83;21089;-77
2022/02/16 01:34:43;;;;;;;27.42;14.80;;;;;;;1.03;69.15;100692.00;1695206;83;21042;-77
2022/02/16 01:37:10;;;;;;;28.70;15.78;;;;;;;1.06;69.21;100682.81;1693507;83;21030;-77
2022/02/16 01:39:37;;;;;;;28.55;15.68;;;;;;;1.09;69.26;100685.75;1671072;84;21567;-77
2022/02/16 01:42:04;;;;;;;28.92;15.75;;;;;;;1.13;69.30;100684.27;1694073;83;21691;-77
2022/02/16 01:44:31;;;;;;;28.27;15.53;;;;;;;1.14;69.30;100682.06;1693331;83;20970;-76
2022/02/16 01:47:04;;;;;;;25.68;16.00;;;;;;;1.14;69.37;100678.16;1697392;83;21038;-77
2022/02/16 01:49:33;;;;;;;29.05;16.32;;;;;;;1.17;69.38;100681.13;1674470;83;21136;-77
2022/02/16 01:52:00;;;;;;;30.27;15.35;;;;;;;1.19;69.39;100679.31;1693761;83;21635;-77
2022/02/16 01:54:28;;;;;;;26.62;15.53;;;;;;;1.23;69.43;100682.19;1719176;83;21770;-77
2022/02/16 01:56:55;;;;;;;28.17;14.90;;;;;;;1.22;69.46;100680.50;1714853;83;20963;-77
2022/02/16 01:59:24;;;;;;;25.97;15.15;;;;;;;1.24;69.56;100672.62;1706789;83;21481;-77
2022/02/16 02:02:09;;;;;;;26.73;15.60;;;;;;;1.24;69.60;100670.02;1711306;83;21058;-76
2022/02/16 02:04:37;;;;;;;23.00;13.68;;;;;;;1.25;69.72;100667.82;1719193;83;21508;-76
2022/02/16 02:07:05;;;;;;;23.83;14.23;;;;;;;1.25;69.82;100662.16;1701499;83;21760;-77
2022/02/16 02:09:33;;;;;;;26.73;16.45;;;;;;;1.25;69.95;100667.36;1704460;82;21034;-77
2022/02/16 02:12:00;;;;;;;28.25;17.20;;;;;;;1.26;70.11;100666.94;1693308;83;21090;-78
2022/02/16 02:14:27;;;;;;;28.15;16.50;;;;;;;1.27;70.22;100666.03;1695693;83;21078;-77
2022/02/16 02:17:08;;;;;;;33.58;17.95;;;;;;;1.28;70.31;100663.38;1692248;83;21053;-76
2022/02/16 02:19:34;;;;;;;33.83;18.25;;;;;;;1.30;70.41;100670.66;1690260;85;22247;-76
2022/02/16 02:22:02;;;;;;;41.02;24.67;;;;;;;1.33;70.50;100667.94;1705390;83;20979;-76
2022/02/16 02:24:29;;;;;;;30.77;17.50;;;;;;;1.34;70.55;100660.98;1717104;83;21023;-77
2022/02/16 02:26:56;;;;;;;28.65;16.25;;;;;;;1.37;70.64;100665.64;1697881;83;21458;-76
2022/02/16 02:29:23;;;;;;;28.65;16.62;;;;;;;1.39;70.62;100663.82;1692720;83;20864;-76
2022/02/16 02:31:54;;;;;;;27.35;16.75;;;;;;;1.42;70.65;100654.59;1691598;83;21860;-77
2022/02/16 02:34:21;;;;;;;26.35;15.08;;;;;;;1.43;70.68;100656.28;1691721;83;21100;-77
2022/02/16 02:36:48;;;;;;;29.42;15.90;;;;;;;1.44;70.69;100649.32;1706648;83;21452;-76
2022/02/16 02:39:14;;;;;;;26.42;14.85;;;;;;;1.43;70.71;100652.38;1709222;83;21389;-77
2022/02/16 02:41:41;;;;;;;25.43;15.03;;;;;;;1.45;70.76;100652.34;1712760;83;21650;-76
2022/02/16 02:44:08;;;;;;;23.60;15.08;;;;;;;1.44;70.81;100659.28;1690787;83;22852;-77
2022/02/16 02:46:35;;;;;;;26.33;13.80;;;;;;;1.44;70.87;100646.27;1705569;83;21069;-78
2022/02/16 02:49:01;;;;;;;24.25;15.48;;;;;;;1.46;70.87;100642.33;1690540;83;20975;-76
2022/02/16 02:51:28;;;;;;;24.60;14.95;;;;;;;1.48;70.90;100640.97;1691215;83;21565;-76
2022/02/16 02:53:56;;;;;;;28.02;15.03;;;;;;;1.48;70.95;100633.16;1710416;83;21006;-78
2022/02/16 02:56:24;;;;;;;27.22;16.02;;;;;;;1.46;71.03;100633.22;1697629;83;22562;-78
2022/02/16 02:58:51;;;;;;;28.92;15.93;;;;;;;1.47;71.11;100632.77;1708242;83;21022;-77
2022/02/16 03:01:18;;;;;;;28.50;15.70;;;;;;;1.46;71.17;100632.38;1704965;83;21034;-77
2022/02/16 03:03:46;;;;;;;25.82;15.68;;;;;;;1.48;71.21;100631.40;1710824;83;21074;-77
2022/02/16 03:06:13;;;;;;;29.07;15.65;;;;;;;1.51;71.23;100633.87;1698890;83;21035;-77
2022/02/16 03:08:40;;;;;;;26.20;16.77;;;;;;;1.54;71.26;100628.55;1681614;84;21821;-77
2022/02/16 03:11:07;;;;;;;28.55;16.42;;;;;;;1.56;71.26;100628.52;1699753;83;21537;-77
2022/02/16 03:13:34;;;;;;;28.47;16.70;;;;;;;1.60;71.29;100627.02;1709649;83;21509;-78
2022/02/16 03:16:05;;;;;;;28.27;17.05;;;;;;;1.62;71.28;100624.35;1693160;83;21062;-75
2022/02/16 03:18:33;;;;;;;27.02;15.85;;;;;;;1.61;71.29;100624.81;1702666;83;20978;-75
2022/02/16 03:21:00;;;;;;;26.12;16.15;;;;;;;1.62;71.33;100621.75;1692061;83;22662;-76
2022/02/16 03:23:29;;;;;;;28.02;16.50;;;;;;;1.62;71.39;100621.75;1699178;83;21108;-76
2022/02/16 03:25:56;;;;;;;24.45;14.75;;;;;;;1.63;71.40;100622.98;1708542;83;21010;-77
2022/02/16 03:28:24;;;;;;;25.75;16.37;;;;;;;1.65;71.45;100618.59;1691901;83;20995;-77
2022/02/16 03:30:56;;;;;;;28.45;16.80;;;;;;;1.67;71.50;100612.87;1690677;84;20991;-77
2022/02/16 03:33:25;;;;;;;24.37;14.98;;;;;;;1.69;71.56;100616.25;1692020;83;21815;-77
2022/02/16 03:35:51;;;;;;;26.07;14.58;;;;;;;1.70;71.60;100608.83;1696800;83;20931;-78
2022/02/16 03:38:17;;;;;;;22.48;14.30;;;;;;;1.69;71.67;100613.65;1692377;83;21465;-77
2022/02/16 03:40:44;;;;;;;23.40;14.40;;;;;;;1.70;71.77;100614.04;1693599;83;21669;-78
2022/02/16 03:43:11;;;;;;;22.20;14.15;;;;;;;1.70;71.86;100612.73;1706918;83;21385;-78
2022/02/16 03:45:38;;;;;;;20.60;13.25;;;;;;;1.72;71.91;100612.22;1703893;83;22496;-77
2022/02/16 03:48:05;;;;;;;23.00;13.80;;;;;;;1.75;72.03;100610.42;1703135;83;21010;-77
2022/02/16 03:50:32;;;;;;;20.75;12.68;;;;;;;1.77;72.02;100610.75;1704744;83;20990;-78
2022/02/16 03:53:01;;;;;;;21.57;12.93;;;;;;;1.79;72.07;100606.78;1704037;83;21023;-76
2022/02/16 03:55:29;;;;;;;23.18;13.30;;;;;;;1.80;72.09;100609.77;1679601;84;21014;-75
2022/02/16 03:57:55;;;;;;;26.20;14.60;;;;;;;1.83;72.12;100613.55;1688917;84;21848;-75
2022/02/16 04:00:23;;;;;;;24.07;14.65;;;;;;;1.84;72.15;100612.67;1690341;84;20959;-76
2022/02/16 04:02:51;;;;;;;21.57;13.28;;;;;;;1.85;72.21;100602.64;1687542;84;21043;-76
2022/02/16 04:05:17;;;;;;;29.85;16.80;;;;;;;1.86;72.23;100605.63;1683556;84;21058;-77
2022/02/16 04:07:44;;;;;;;30.68;17.27;;;;;;;1.86;72.34;100609.54;1676841;84;20991;-76
2022/02/16 04:10:11;;;;;;;27.42;16.45;;;;;;;1.87;72.43;100600.81;1695233;84;21799;-77
2022/02/16 04:12:40;;;;;;;31.75;18.70;;;;;;;1.86;72.52;100608.23;1702619;84;21094;-77
2022/02/16 04:15:08;;;;;;;32.28;19.57;;;;;;;1.88;72.60;100605.96;1699822;84;21023;-77
2022/02/16 04:17:37;;;;;;;29.23;18.48;;;;;;;1.90;72.63;100598.92;1689270;84;21114;-77
2022/02/16 04:20:07;;;;;;;30.90;19.02;;;;;;;1.93;72.63;100592.73;1692378;84;20991;-76
2022/02/16 04:22:43;;;;;;;32.63;17.85;;;;;;;1.94;72.71;100595.30;1707159;84;21841;-75
2022/02/16 04:25:10;;;;;;;31.33;17.05;;;;;;;1.97;72.70;100595.17;1684732;84;21117;-75
2022/02/16 04:27:37;;;;;;;31.90;17.60;;;;;;;2.00;72.77;100591.59;1686886;84;21057;-75
2022/02/16 04:30:08;;;;;;;29.65;15.98;;;;;;;2.02;72.81;100585.85;1691081;84;21039;-75
2022/02/16 04:32:36;;;;;;;26.33;15.38;;;;;;;2.05;72.88;100587.51;1688806;84;21011;-74
2022/02/16 04:35:03;;;;;;;26.40;15.72;;;;;;;2.05;72.92;100589.66;1702959;84;21713;-76
2022/02/16 04:37:30;;;;;;;26.48;15.15;;;;;;;2.07;72.98;100589.59;1693377;84;21023;-76
2022/02/16 04:39:57;;;;;;;24.00;15.05;;;;;;;2.09;73.02;100586.00;1695101;84;21616;-79
2022/02/16 04:42:25;;;;;;;25.20;14.47;;;;;;;2.12;73.05;100586.33;1697734;84;20994;-82
2022/02/16 04:44:53;;;;;;;21.45;12.23;;;;;;;2.13;73.13;100584.14;1704546;84;20993;-77
2022/02/16 04:47:20;;;;;;;20.10;11.40;;;;;;;2.14;73.25;100582.77;1713100;84;23245;-78
2022/02/16 04:49:47;;;;;;;26.23;12.40;;;;;;;2.15;73.33;100581.86;1700767;84;20984;-82
2022/02/16 04:52:14;;;;;;;18.80;11.80;;;;;;;2.15;73.46;100585.77;1676995;84;21031;-78
2022/02/16 04:54:40;;;;;;;20.88;12.53;;;;;;;2.16;73.54;100591.36;1705660;84;21042;-84
2022/02/16 04:57:07;;;;;;;19.55;11.88;;;;;;;2.16;73.62;100586.15;1665962;84;21019;-84
2022/02/16 04:59:38;;;;;;;19.67;11.55;;;;;;;2.18;73.67;100590.84;1703246;83;21846;-82
2022/02/16 05:02:05;;;;;;;23.40;12.58;;;;;;;2.19;73.76;100592.98;1718143;83;21102;-82
2022/02/16 05:04:32;;;;;;;26.02;14.15;;;;;;;2.19;73.90;100596.89;1673653;84;21006;-81
2022/02/16 05:07:00;;;;;;;21.45;12.75;;;;;;;2.18;73.97;100595.20;1698540;83;21172;-78
2022/02/16 05:09:28;;;;;;;21.73;13.40;;;;;;;2.18;74.01;100601.26;1712181;83;21047;-76
2022/02/16 05:11:55;;;;;;;24.30;13.48;;;;;;;2.20;74.05;100599.89;1704387;83;21840;-78
2022/02/16 05:14:22;;;;;;;25.00;15.13;;;;;;;2.20;74.10;100599.44;1695837;83;21100;-77
2022/02/16 05:16:50;;;;;;;23.50;15.18;;;;;;;2.22;74.12;100600.67;1717096;82;21058;-75
2022/02/16 05:19:17;;;;;;;26.35;14.15;;;;;;;2.21;74.20;100597.22;1719530;83;21068;-80
2022/02/16 05:21:45;;;;;;;28.40;15.95;;;;;;;2.24;74.21;100606.69;1703931;83;21042;-79
2022/02/16 05:24:13;;;;;;;29.70;15.40;;;;;;;2.25;74.25;100612.29;1709831;83;22577;-73
2022/02/16 05:26:42;;;;;;;31.45;17.23;;;;;;;2.22;74.28;100604.15;1691680;84;20970;-79
2022/02/16 05:29:09;;;;;;;33.58;17.37;;;;;;;2.22;74.33;100606.76;1697280;83;21049;-73
2022/02/16 05:31:37;;;;;;;32.70;16.85;;;;;;;2.23;74.39;100605.84;1696372;81;21077;-78
2022/02/16 05:34:03;;;;;;;35.75;16.95;;;;;;;2.24;74.45;100610.14;1715598;83;20983;-76
2022/02/16 05:36:32;;;;;;;45.98;19.10;;;;;;;2.25;74.52;100604.47;1712950;83;21841;-77
2022/02/16 05:39:00;;;;;;;38.13;18.02;;;;;;;2.26;74.58;100610.92;1720848;83;21018;-77
2022/02/16 05:41:29;;;;;;;47.08;20.95;;;;;;;2.26;74.65;100608.31;1717397;83;21101;-76
2022/02/16 05:43:57;;;;;;;43.28;19.77;;;;;;;2.26;74.75;100610.92;1692123;83;21038;-77
2022/02/16 05:46:24;;;;;;;54.53;26.17;;;;;;;2.26;74.79;100618.73;1708703;83;20991;-77
2022/02/16 05:48:51;;;;;;;60.65;24.45;;;;;;;2.26;74.95;100616.13;1701903;82;22234;-78
2022/02/16 05:51:18;;;;;;;35.83;17.23;;;;;;;2.26;75.05;100613.52;1691944;84;20974;-77
2022/02/16 05:53:45;;;;;;;38.73;18.77;;;;;;;2.25;75.10;100614.44;1692033;84;20978;-77
2022/02/16 05:56:12;;;;;;;33.95;16.90;;;;;;;2.26;75.21;100610.08;1688791;83;21003;-77
2022/02/16 05:58:40;;;;;;;37.30;18.92;;;;;;;2.25;75.28;100609.69;1681748;84;21035;-77
2022/02/16 06:01:07;;;;;;;35.20;17.17;;;;;;;2.24;75.33;100610.14;1701815;84;21827;-77
2022/02/16 06:03:37;;;;;;;27.82;15.63;;;;;;;2.24;75.42;100607.53;1694709;84;21012;-78
2022/02/16 06:06:04;;;;;;;27.58;16.55;;;;;;;2.24;75.55;100598.88;1687383;84;21493;-78
2022/02/16 06:08:31;;;;;;;35.52;20.85;;;;;;;2.25;75.69;100596.20;1679680;84;21079;-78
2022/02/16 06:11:02;;;;;;;33.45;20.35;;;;;;;2.24;75.82;100592.36;1695863;84;21023;-78
2022/02/16 06:13:32;;;;;;;33.08;19.37;;;;;;;2.24;75.92;100594.96;1676179;84;21883;-78
2022/02/16 06:15:56;;;;;;;30.02;17.15;;;;;;;2.26;76.01;100593.13;1690088;84;20975;-79
2022/02/16 06:18:23;;;;;;;30.92;16.80;;;;;;;2.26;76.16;100586.16;1675285;84;21055;-78
2022/02/16 06:20:49;;;;;;;29.12;16.27;;;;;;;2.26;76.28;100584.86;1674100;84;21023;-78
2022/02/16 06:23:19;;;;;;;28.47;16.42;;;;;;;2.26;76.35;100578.34;1679707;84;21516;-78
2022/02/16 06:25:46;;;;;;;25.25;14.18;;;;;;;2.28;76.45;100579.58;1690216;84;21825;-77
2022/02/16 06:28:13;;;;;;;22.30;13.70;;;;;;;2.29;76.58;100584.72;1674104;84;21012;-77
2022/02/16 06:30:41;;;;;;;23.38;13.38;;;;;;;2.30;76.66;100578.59;1701063;84;21019;-78
2022/02/16 06:33:10;;;;;;;22.17;13.28;;;;;;;2.32;76.89;100572.46;1685984;84;20971;-77
2022/02/16 06:35:38;;;;;;;19.80;12.75;;;;;;;2.30;77.02;100573.84;1701833;83;21047;-78
2022/02/16 06:38:06;;;;;;;17.85;12.68;;;;;;;2.30;77.10;100564.72;1688555;84;22202;-78
2022/02/16 06:40:34;;;;;;;21.77;12.33;;;;;;;2.30;77.16;100578.59;1693587;84;20951;-77
2022/02/16 06:43:02;;;;;;;21.37;13.20;;;;;;;2.29;77.30;100576.90;1696099;84;21597;-78
2022/02/16 06:45:31;;;;;;;20.77;12.82;;;;;;;2.29;77.37;100574.75;1673500;85;21469;-77
2022/02/16 06:47:59;;;;;;;19.35;12.15;;;;;;;2.31;77.47;100565.10;1673878;85;21060;-77
2022/02/16 06:50:26;;;;;;;21.12;12.90;;;;;;;2.33;77.55;100571.58;1696602;84;22187;-78
2022/02/16 06:52:55;;;;;;;25.77;13.93;;;;;;;2.33;77.67;100561.16;1699837;84;20983;-78
2022/02/16 06:55:21;;;;;;;21.87;13.32;;;;;;;2.34;77.74;100565.45;1701854;84;21014;-77
2022/02/16 06:57:50;;;;;;;22.52;13.15;;;;;;;2.34;77.83;100561.08;1700300;83;21660;-78
2022/02/16 07:00:18;;;;;;;20.20;13.60;;;;;;;2.35;77.97;100557.56;1681468;84;21109;-78
2022/02/16 07:02:47;;;;;;;19.87;13.65;;;;;;;2.34;78.07;100555.87;1675365;84;21383;-77
2022/02/16 07:05:16;;;;;;;23.90;15.50;;;;;;;2.35;78.16;100557.56;1678072;84;21636;-76
2022/02/16 07:07:43;;;;;;;26.45;17.32;;;;;;;2.35;78.25;100554.95;1687600;84;21051;-78
2022/02/16 07:10:10;;;;;;;26.33;18.17;;;;;;;2.37;78.34;100550.97;1665309;84;21320;-79
2022/02/16 07:12:38;;;;;;;33.85;21.48;;;;;;;2.37;78.41;100546.61;1696001;83;20964;-79
2022/02/16 07:15:14;;;;;;;35.35;20.75;;;;;;;2.39;78.48;100548.69;1682066;83;21771;-79
2022/02/16 07:17:41;;;;;;;32.28;20.43;;;;;;;2.41;78.59;100540.80;1680960;84;21095;-77
2022/02/16 07:20:14;;;;;;;27.58;18.40;;;;;;;2.41;78.67;100542.09;1673553;85;21032;-79
2022/02/16 07:22:46;;;;;;;26.82;16.55;;;;;;;2.40;78.74;100536.50;1693384;84;21023;-77
2022/02/16 07:25:15;;;;;;;;;;;;;;;2.40;78.81;100539.10;1681549;83;21133;-83
2022/02/16 07:27:44;;;;;;;26.68;16.85;;;;;;;2.42;78.88;100538.61;1689873;84;20242;-80
2022/02/16 07:30:13;;;;;;;31.60;19.65;;;;;;;2.41;78.97;100537.73;1689790;84;20967;-80
2022/02/16 07:32:41;;;;;;;29.95;17.87;;;;;;;2.43;79.02;100529.87;1688552;84;21051;-81
2022/02/16 07:35:11;;;;;;;42.67;23.52;;;;;;;2.45;79.16;100535.86;1682135;84;21114;-80
2022/02/16 07:37:38;;;;;;;30.57;18.98;;;;;;;2.46;79.14;100536.24;1687268;84;21086;-74
2022/02/16 07:40:06;;;;;;;35.28;20.48;;;;;;;2.47;79.17;100532.72;1698419;84;21835;-73
2022/02/16 07:42:34;;;;;;;33.67;18.48;;;;;;;2.48;79.23;100529.20;1662472;84;20979;-76
2022/02/16 07:45:20;;;;;;;29.60;16.32;;;;;;;2.49;79.21;100525.21;1672267;84;21566;-71
2022/02/16 07:47:47;;;;;;;30.15;19.20;;;;;;;2.51;79.26;100522.53;1649842;85;21741;-71
2022/02/16 07:50:14;;;;;;;43.08;23.38;;;;;;;2.55;79.29;100522.81;1674804;84;21521;-74
2022/02/16 07:52:42;;;;;;;54.00;26.02;;;;;;;2.56;79.29;100517.98;1674185;84;21862;-73
2022/02/16 07:55:10;;;;;;;47.55;24.15;;;;;;;2.59;79.32;100512.62;1691646;84;21002;-75
2022/02/16 07:57:38;;;;;;;53.90;27.25;;;;;;;2.62;79.36;100512.50;1674267;84;21063;-75
2022/02/16 08:00:06;;;;;;;29.10;17.25;;;;;;;2.65;79.35;100516.27;1673716;84;20988;-77
2022/02/16 08:02:35;;;;;;;41.83;21.15;;;;;;;2.68;79.37;100508.77;1677585;84;21480;-81
2022/02/16 08:05:04;;;;;;;33.42;17.98;;;;;;;2.70;79.34;100497.80;1680737;84;22209;-78
2022/02/16 08:07:33;;;;;;;25.92;16.62;;;;;;;2.72;79.34;100502.52;1680632;84;21482;-78
2022/02/16 08:09:59;;;;;;;26.23;16.95;;;;;;;2.73;79.34;100496.38;1650030;85;21011;-77
2022/02/16 08:12:26;;;;;;;26.12;16.05;;;;;;;2.75;79.37;100499.75;1675347;84;21048;-76
2022/02/16 08:14:53;;;;;;;32.80;17.42;;;;;;;2.76;79.40;100503.59;1692727;83;21041;-75
2022/02/16 08:17:21;;;;;;;26.60;15.32;;;;;;;2.78;79.39;100499.61;1675682;83;21812;-74
2022/02/16 08:19:48;;;;;;;20.48;12.98;;;;;;;2.79;79.40;100503.44;1685576;84;21071;-77
2022/02/16 08:22:14;;;;;;;21.17;13.75;;;;;;;2.82;79.41;100505.09;1657585;85;21046;-73
2022/02/16 08:24:41;;;;;;;20.70;14.18;;;;;;;2.81;79.40;100504.25;1670301;85;21055;-74
2022/02/16 08:27:09;;;;;;;19.45;14.10;;;;;;;2.80;79.42;100497.34;1683761;84;21454;-72
2022/02/16 08:29:39;;;;;;;19.42;13.15;;;;;;;2.80;79.45;100497.34;1687359;83;22362;-73
2022/02/16 08:32:08;;;;;;;20.57;13.50;;;;;;;2.81;79.46;100499.03;1676030;84;21549;-72
2022/02/16 08:34:42;;;;;;;15.80;11.88;;;;;;;2.81;79.56;100495.12;1686378;84;21047;-74
2022/02/16 08:37:11;;;;;;;20.35;13.13;;;;;;;2.81;79.60;100491.66;1689938;84;21263;-77
2022/02/16 08:39:37;;;;;;;21.97;14.73;;;;;;;2.81;79.70;100490.36;1699433;84;21454;-72
2022/02/16 08:42:04;;;;;;;21.45;15.55;;;;;;;2.83;79.77;100490.67;1686511;83;22665;-74
2022/02/16 08:44:32;;;;;;;19.90;14.53;;;;;;;2.85;79.78;100487.98;1687215;84;21422;-81
2022/02/16 08:46:58;;;;;;;20.52;15.40;;;;;;;2.83;79.81;100486.75;1679514;84;21557;-84
2022/02/16 08:49:25;;;;;;;17.17;12.40;;;;;;;2.81;79.86;100483.38;1689430;84;21657;-84
2022/02/16 08:51:51;;;;;;;24.87;16.00;;;;;;;2.80;79.94;100483.00;1701965;83;21477;-83
2022/02/16 08:54:19;;;;;;;17.77;13.55;;;;;;;2.80;80.01;100476.47;1700767;84;21537;-82
2022/02/16 08:56:46;;;;;;;26.35;16.12;;;;;;;2.80;80.05;100475.17;1699197;83;21034;-75
2022/02/16 08:59:13;;;;;;;23.18;14.13;;;;;;;2.79;80.10;100478.66;1695199;84;21027;-76
2022/02/16 09:01:39;;;;;;;21.62;14.70;;;;;;;2.80;80.18;100475.62;1675537;84;21076;-72
2022/02/16 09:04:06;;;;;;;21.55;14.33;;;;;;;2.80;80.28;100471.72;1701739;84;20979;-74
2022/02/16 09:06:34;;;;;;;18.73;13.60;;;;;;;2.81;80.32;100466.88;1683755;84;21806;-73
2022/02/16 09:09:04;;;;;;;16.85;12.35;;;;;;;2.83;80.43;100476.78;1700039;84;20939;-72
2022/02/16 09:11:32;;;;;;;18.55;12.82;;;;;;;2.83;80.50;100471.11;1690277;84;21423;-74
2022/02/16 09:14:00;;;;;;;14.45;11.10;;;;;;;2.84;80.51;100467.58;1693013;84;21003;-74
2022/02/16 09:16:26;;;;;;;15.35;10.82;;;;;;;2.84;80.61;100466.73;1689614;84;21425;-80
2022/02/16 09:18:53;;;;;;;17.67;12.05;;;;;;;2.84;80.65;100459.75;1694345;84;23007;-71
2022/02/16 09:21:19;;;;;;;17.17;11.00;;;;;;;2.85;80.68;100461.90;1681030;83;21505;-73
2022/02/16 09:23:46;;;;;;;13.48;10.20;;;;;;;2.86;80.76;100457.91;1685814;84;21478;-72
2022/02/16 09:26:12;;;;;;;18.77;13.00;;;;;;;2.88;80.81;100452.62;1697757;84;21493;-70
2022/02/16 09:28:39;;;;;;;19.60;12.85;;;;;;;2.88;80.84;100449.55;1682593;83;21636;-76
2022/02/16 09:31:06;;;;;;;16.85;11.28;;;;;;;2.90;80.88;100446.89;1657144;84;21821;-72
2022/02/16 09:33:36;;;;;;;14.13;10.43;;;;;;;2.92;80.89;100447.66;1677291;84;20987;-75
2022/02/16 09:36:03;;;;;;;14.95;10.28;;;;;;;2.93;80.95;100443.29;1673490;84;21462;-74
2022/02/16 09:38:29;;;;;;;14.73;9.53;;;;;;;2.95;80.96;100436.23;1677854;84;21629;-73
2022/02/16 09:40:57;;;;;;;17.37;11.85;;;;;;;2.95;80.98;100431.02;1678767;84;21517;-74
2022/02/16 09:43:27;;;;;;;18.55;11.83;;;;;;;2.96;81.04;100436.16;1679349;84;20979;-73
2022/02/16 09:45:55;;;;;;;13.72;9.75;;;;;;;2.99;81.05;100428.62;1673465;85;20964;-82
2022/02/16 09:48:22;;;;;;;14.80;10.68;;;;;;;3.01;81.02;100426.82;1673421;85;21043;-80
2022/02/16 09:50:50;;;;;;;17.20;11.48;;;;;;;3.01;81.03;100434.19;1677842;84;21043;-78
2022/02/16 09:53:16;;;;;;;19.30;12.90;;;;;;;3.05;81.01;100427.05;1700694;84;21478;-78
2022/02/16 09:55:44;;;;;;;18.82;11.45;;;;;;;3.06;81.00;100422.21;1694778;84;21837;-80
2022/02/16 09:58:11;;;;;;;15.20;9.30;;;;;;;3.08;80.96;100420.37;1693789;83;21070;-80
2022/02/16 10:00:38;;;;;;;13.80;8.85;;;;;;;3.10;80.88;100431.14;1690909;84;21082;-73
2022/02/16 10:03:13;;;;;;;19.32;10.53;;;;;;;3.09;80.81;100415.10;1702275;83;21061;-78
2022/02/16 10:05:40;;;;;;;17.87;10.40;;;;;;;3.09;80.77;100409.04;1708887;83;21571;-74
2022/02/16 10:08:06;;;;;;;17.52;10.88;;;;;;;3.08;80.75;100408.16;1710068;83;21727;-75
2022/02/16 10:10:33;;;;;;;19.10;10.82;;;;;;;3.10;80.72;100408.12;1690839;84;21069;-76
2022/02/16 10:13:02;;;;;;;15.32;11.18;;;;;;;3.11;80.74;100400.21;1693331;83;21069;-78
2022/02/16 10:15:43;;;;;;;14.60;8.90;;;;;;;3.12;80.74;100399.75;1690761;84;21478;-73
2022/02/16 10:18:15;;;;;;;13.03;8.43;;;;;;;3.13;80.75;100389.23;1690923;84;21110;-74
2022/02/16 10:20:42;;;;;;;13.45;8.70;;;;;;;3.13;80.72;100389.69;1690762;84;21757;-74
2022/02/16 10:23:09;;;;;;;13.68;9.30;;;;;;;3.14;80.70;100387.47;1692555;83;20954;-72
2022/02/16 10:25:37;;;;;;;13.25;9.30;;;;;;;3.14;80.67;100386.16;1690726;84;21313;-74
2022/02/16 10:28:14;;;;;;;15.38;8.78;;;;;;;3.14;80.67;100371.34;1697675;83;21017;-72
2022/02/16 10:30:59;;;;;;;15.18;11.05;;;;;;;3.15;80.67;100370.42;1712486;83;21085;-75
2022/02/16 10:33:37;;;;;;;17.45;11.80;;;;;;;3.17;80.68;100367.73;1717009;83;21592;-75
2022/02/16 10:36:13;;;;;;;14.93;10.58;;;;;;;3.16;80.65;100363.44;1690962;83;20985;-76
2022/02/16 10:39:04;;;;;;;13.62;10.05;;;;;;;3.14;80.58;100362.21;1719670;83;21140;-77
2022/02/16 10:41:51;;;;;;;13.15;9.50;;;;;;;3.14;80.58;100349.16;1719661;83;21113;-77
2022/02/16 10:44:22;;;;;;;14.98;9.20;;;;;;;3.15;80.59;100347.39;1712485;83;21089;-77
2022/02/16 10:47:11;;;;;;;12.68;8.53;;;;;;;3.19;80.58;100340.28;1717674;83;22544;-75
2022/02/16 10:49:43;;;;;;;16.30;12.37;;;;;;;3.20;80.59;100340.66;1690702;84;21081;-77
2022/02/16 10:52:18;;;;;;;13.72;10.53;;;;;;;3.21;80.56;100338.43;1690816;84;21041;-77
2022/02/16 10:55:02;;;;;;;15.70;10.43;;;;;;;3.24;80.54;100340.88;1692685;83;21038;-76
2022/02/16 10:57:25;;;;;;;15.30;10.32;;;;;;;3.28;80.53;100327.61;1689454;84;21085;-76
2022/02/16 10:59:51;;;;;;;14.75;9.93;;;;;;;3.30;80.50;100323.16;1708543;83;21867;-77
2022/02/16 11:02:21;;;;;;;18.80;12.80;;;;;;;3.33;80.42;100316.92;1719599;83;21081;-77
2022/02/16 11:04:49;;;;;;;19.40;12.05;;;;;;;3.34;80.42;100318.61;1706535;83;21070;-77
2022/02/16 11:07:19;;;;;;;14.10;10.43;;;;;;;3.36;80.37;100311.55;1690941;84;21120;-76
2022/02/16 11:09:48;;;;;;;21.90;11.80;;;;;;;3.38;80.37;100304.50;1690191;84;21121;-75
2022/02/16 11:12:16;;;;;;;17.55;11.05;;;;;;;3.40;80.31;100298.73;1690774;84;21818;-76
2022/02/16 11:14:43;;;;;;;26.25;15.50;;;;;;;3.43;80.32;100303.79;1692842;83;21541;-77
2022/02/16 11:17:11;;;;;;;15.28;10.25;;;;;;;3.45;80.27;100298.87;1691100;83;21612;-77
2022/02/16 11:19:40;;;;;;;14.80;9.55;;;;;;;3.47;80.23;100301.85;1697850;83;21038;-75
2022/02/16 11:22:13;;;;;;;13.28;8.98;;;;;;;3.47;80.17;100300.55;1716059;83;21078;-74